Time;durP1;ratioP1;P1;durP2;ratioP2;P2;SDS_P1;SDS_P2;PMS_P1;PMS_P2;Temp;Humidity;BMP_temperature;BMP_pressure;BME280_temperature;BME280_humidity;BME280_pressure;Samples;Min_cycle;Max_cycle;Signal;HPM_P1;HPM_P2
2024/01/06 00:00:17;;;;;;;297.25;207.57;;;;;;;;;;5079259;28;20024;-76
2024/01/06 00:02:43;;;;;;;278.05;191.40;;;;;;;;;;5078485;28;20062;-73
2024/01/06 00:05:08;;;;;;;298.33;224.65;;;;;;;;;;5076505;28;20034;-74
2024/01/06 00:07:34;;;;;;;273.27;201.93;;;;;;;;;;5074323;28;20032;-74
2024/01/06 00:09:59;;;;;;;256.80;184.80;;;;;;;;;;5076671;28;20307;-77
2024/01/06 00:12:24;;;;;;;311.63;238.27;;;;;;;;;;5077777;28;20194;-74
2024/01/06 00:14:50;;;;;;;223.65;160.05;;;;;;;;;;5076549;28;20086;-75
2024/01/06 00:17:15;;;;;;;169.38;118.32;;;;;;;;;;5080080;28;20028;-75
2024/01/06 00:19:41;;;;;;;113.47;82.60;;;;;;;;;;5074940;28;20035;-72
2024/01/06 00:22:06;;;;;;;112.13;80.38;;;;;;;;;;5078402;28;20042;-74
2024/01/06 00:24:31;;;;;;;83.60;60.67;;;;;;;;;;5074873;28;20036;-74
2024/01/06 00:26:57;;;;;;;51.63;36.30;;;;;;;;;;5076700;28;20032;-73
2024/01/06 00:29:22;;;;;;;44.55;34.03;;;;;;;;;;5081531;28;20060;-71
2024/01/06 00:31:48;;;;;;;82.40;55.08;;;;;;;;;;5074984;28;20119;-72
2024/01/06 00:34:13;;;;;;;204.60;131.65;;;;;;;;;;5075479;28;20105;-76
2024/01/06 00:36:38;;;;;;;113.95;76.15;;;;;;;;;;5057456;28;20032;-77
2024/01/06 00:39:04;;;;;;;56.38;36.25;;;;;;;;;;5079375;28;20032;-76
2024/01/06 00:41:30;;;;;;;44.05;30.65;;;;;;;;;;5077105;28;20122;-75
2024/01/06 00:43:55;;;;;;;113.60;77.80;;;;;;;;;;5077502;28;20028;-75
2024/01/06 00:46:20;;;;;;;79.45;47.65;;;;;;;;;;5078373;28;20032;-71
2024/01/06 00:48:46;;;;;;;69.43;37.20;;;;;;;;;;5077960;28;20035;-70
2024/01/06 00:51:11;;;;;;;65.43;37.80;;;;;;;;;;5079086;28;20454;-70
2024/01/06 00:53:36;;;;;;;52.03;36.42;;;;;;;;;;5078525;28;20035;-71
2024/01/06 00:56:02;;;;;;;35.67;25.48;;;;;;;;;;5078716;28;20038;-71
2024/01/06 00:58:28;;;;;;;45.17;33.70;;;;;;;;;;5077861;28;20114;-70
2024/01/06 01:00:53;;;;;;;76.22;57.10;;;;;;;;;;5077598;28;20031;-76
2024/01/06 01:03:18;;;;;;;67.53;52.88;;;;;;;;;;5075635;28;20032;-70
2024/01/06 01:05:44;;;;;;;40.28;29.15;;;;;;;;;;5077795;28;20048;-70
2024/01/06 01:08:09;;;;;;;47.15;38.65;;;;;;;;;;5073091;28;20054;-74
2024/01/06 01:10:34;;;;;;;64.93;53.28;;;;;;;;;;5074731;28;20036;-71
2024/01/06 01:13:00;;;;;;;77.60;60.42;;;;;;;;;;5079131;28;20619;-72
2024/01/06 01:15:25;;;;;;;91.45;67.50;;;;;;;;;;5073655;28;20020;-72
2024/01/06 01:17:50;;;;;;;58.83;45.10;;;;;;;;;;5080679;28;20034;-69
2024/01/06 01:20:16;;;;;;;52.13;38.85;;;;;;;;;;5078590;28;20392;-70
2024/01/06 01:22:41;;;;;;;57.50;43.78;;;;;;;;;;5077699;28;20036;-70
2024/01/06 01:25:08;;;;;;;69.63;50.58;;;;;;;;;;5076021;28;20039;-74
2024/01/06 01:27:36;;;;;;;71.47;56.47;;;;;;;;;;5062280;28;20036;-73
2024/01/06 01:30:01;;;;;;;67.90;51.10;;;;;;;;;;5081272;28;20028;-70
2024/01/06 01:32:27;;;;;;;69.55;52.15;;;;;;;;;;5094604;28;20031;-70
2024/01/06 01:34:52;;;;;;;65.57;49.10;;;;;;;;;;5101480;28;20658;-71
2024/01/06 01:37:17;;;;;;;57.22;44.97;;;;;;;;;;5103283;28;20028;-70
2024/01/06 01:39:43;;;;;;;56.85;45.67;;;;;;;;;;5101666;28;20032;-75
2024/01/06 01:42:09;;;;;;;43.13;34.92;;;;;;;;;;5102851;28;20490;-72
2024/01/06 01:44:34;;;;;;;41.15;32.05;;;;;;;;;;5100218;28;20030;-71
2024/01/06 01:46:59;;;;;;;45.97;34.05;;;;;;;;;;5100380;28;20046;-71
2024/01/06 01:49:25;;;;;;;51.67;36.90;;;;;;;;;;5083895;28;20103;-71
2024/01/06 01:51:51;;;;;;;29.63;21.52;;;;;;;;;;5099744;28;20028;-70
2024/01/06 01:54:16;;;;;;;52.38;33.78;;;;;;;;;;5098327;28;20020;-72
2024/01/06 01:56:42;;;;;;;46.13;29.67;;;;;;;;;;5101076;28;20041;-71
2024/01/06 01:59:11;;;;;;;28.33;18.85;;;;;;;;;;5103229;28;20124;-72
2024/01/06 02:01:36;;;;;;;55.90;39.50;;;;;;;;;;5102014;28;20022;-71
2024/01/06 02:04:02;;;;;;;37.88;25.35;;;;;;;;;;5099661;28;20024;-72
2024/01/06 02:06:27;;;;;;;15.48;12.27;;;;;;;;;;5090371;28;20032;-74
2024/01/06 02:08:53;;;;;;;13.50;10.00;;;;;;;;;;5081474;28;20047;-71
2024/01/06 02:11:19;;;;;;;28.98;18.60;;;;;;;;;;5089385;28;20099;-70
2024/01/06 02:13:44;;;;;;;37.78;24.30;;;;;;;;;;5092780;28;20110;-70
2024/01/06 02:16:09;;;;;;;25.98;19.67;;;;;;;;;;5100145;28;20070;-70
2024/01/06 02:18:35;;;;;;;38.55;28.45;;;;;;;;;;5082898;28;20115;-70
2024/01/06 02:21:01;;;;;;;33.58;23.58;;;;;;;;;;5098367;28;20038;-72
2024/01/06 02:23:28;;;;;;;39.83;27.83;;;;;;;;;;5097924;28;20024;-75
2024/01/06 02:25:53;;;;;;;31.38;20.02;;;;;;;;;;5099561;28;20016;-70
2024/01/06 02:28:18;;;;;;;46.13;32.30;;;;;;;;;;5097187;28;20031;-72
2024/01/06 02:30:44;;;;;;;52.67;32.03;;;;;;;;;;5081608;28;20019;-69
2024/01/06 02:33:09;;;;;;;37.08;26.13;;;;;;;;;;5098129;28;20039;-70
2024/01/06 02:35:34;;;;;;;33.90;23.13;;;;;;;;;;5098384;28;20093;-70
2024/01/06 02:38:00;;;;;;;37.28;26.15;;;;;;;;;;5086373;28;20031;-75
2024/01/06 02:40:26;;;;;;;45.53;32.25;;;;;;;;;;5077024;28;20123;-70
2024/01/06 02:42:51;;;;;;;38.30;25.95;;;;;;;;;;5094263;28;20929;-73
2024/01/06 02:45:16;;;;;;;30.85;23.77;;;;;;;;;;5082100;28;20028;-72
2024/01/06 02:47:42;;;;;;;30.08;21.42;;;;;;;;;;5097281;28;20039;-71
2024/01/06 02:50:07;;;;;;;33.55;25.52;;;;;;;;;;5090492;28;20445;-71
2024/01/06 02:52:33;;;;;;;44.20;31.17;;;;;;;;;;5085370;28;20042;-72
2024/01/06 02:54:58;;;;;;;51.28;40.13;;;;;;;;;;5099152;28;20084;-69
2024/01/06 02:57:24;;;;;;;39.15;30.05;;;;;;;;;;5099285;28;20011;-70
2024/01/06 02:59:49;;;;;;;48.53;34.78;;;;;;;;;;5099174;28;20460;-70
2024/01/06 03:02:14;;;;;;;58.63;42.15;;;;;;;;;;5096358;28;21273;-70
2024/01/06 03:04:40;;;;;;;70.82;50.15;;;;;;;;;;5089533;28;20304;-75
2024/01/06 03:07:05;;;;;;;67.57;50.65;;;;;;;;;;5085218;28;20034;-73
2024/01/06 03:09:31;;;;;;;76.82;56.70;;;;;;;;;;5095856;28;20131;-71
2024/01/06 03:11:56;;;;;;;72.18;56.05;;;;;;;;;;5066640;28;20622;-73
2024/01/06 03:14:21;;;;;;;85.28;62.58;;;;;;;;;;5098744;28;20119;-70
2024/01/06 03:16:47;;;;;;;82.43;61.78;;;;;;;;;;5081739;28;20358;-71
2024/01/06 03:19:12;;;;;;;66.88;50.08;;;;;;;;;;5096309;28;20419;-74
2024/01/06 03:21:37;;;;;;;45.50;36.03;;;;;;;;;;5084053;28;20016;-71
2024/01/06 03:24:03;;;;;;;38.78;28.17;;;;;;;;;;5090412;28;20550;-71
2024/01/06 03:26:29;;;;;;;38.72;28.55;;;;;;;;;;5097181;28;20020;-74
2024/01/06 03:28:54;;;;;;;24.60;18.48;;;;;;;;;;5096829;28;20284;-71
2024/01/06 03:31:22;;;;;;;46.03;35.95;;;;;;;;;;5097883;28;20023;-71
2024/01/06 03:33:47;;;;;;;44.53;34.55;;;;;;;;;;5095972;28;20028;-70
2024/01/06 03:36:13;;;;;;;30.70;23.65;;;;;;;;;;5098195;28;20038;-70
2024/01/06 03:38:39;;;;;;;69.10;48.13;;;;;;;;;;5097682;28;20135;-70
2024/01/06 03:41:04;;;;;;;49.22;40.13;;;;;;;;;;5085401;28;20047;-73
2024/01/06 03:43:29;;;;;;;91.20;75.20;;;;;;;;;;5092667;28;20065;-70
2024/01/06 03:45:56;;;;;;;85.35;68.22;;;;;;;;;;5102148;28;20028;-70
2024/01/06 03:48:22;;;;;;;90.28;73.68;;;;;;;;;;5095686;28;20059;-70
2024/01/06 03:50:47;;;;;;;82.18;61.78;;;;;;;;;;5079427;28;20402;-70
2024/01/06 03:53:12;;;;;;;78.22;60.67;;;;;;;;;;5095608;28;20356;-70
2024/01/06 03:55:37;;;;;;;94.28;72.32;;;;;;;;;;5099156;28;20080;-72
2024/01/06 03:58:03;;;;;;;110.75;87.38;;;;;;;;;;5096316;28;20024;-74
2024/01/06 04:00:28;;;;;;;71.07;58.60;;;;;;;;;;5096118;28;20027;-69
2024/01/06 04:02:54;;;;;;;45.90;39.08;;;;;;;;;;5095121;28;20035;-69
2024/01/06 04:05:19;;;;;;;39.78;32.35;;;;;;;;;;5098773;28;20148;-73
2024/01/06 04:07:44;;;;;;;33.92;27.58;;;;;;;;;;5078353;28;20034;-70
2024/01/06 04:10:10;;;;;;;23.17;19.33;;;;;;;;;;5099096;28;20100;-70
2024/01/06 04:12:35;;;;;;;28.35;22.52;;;;;;;;;;5098492;28;20074;-70
2024/01/06 04:15:00;;;;;;;23.85;19.90;;;;;;;;;;5096786;28;20028;-72
2024/01/06 04:17:26;;;;;;;23.38;15.73;;;;;;;;;;5088582;28;20020;-70
2024/01/06 04:19:52;;;;;;;10.02;8.50;;;;;;;;;;5089458;28;20023;-74
2024/01/06 04:22:17;;;;;;;11.05;7.63;;;;;;;;;;5097166;28;20119;-74
2024/01/06 04:24:42;;;;;;;31.00;24.40;;;;;;;;;;5095691;28;20028;-70
2024/01/06 04:27:09;;;;;;;50.05;37.50;;;;;;;;;;5075848;28;20024;-75
2024/01/06 04:29:35;;;;;;;40.90;30.30;;;;;;;;;;5099491;28;20145;-71
2024/01/06 04:32:00;;;;;;;40.72;31.75;;;;;;;;;;5095878;28;20037;-70
2024/01/06 04:34:25;;;;;;;49.10;36.05;;;;;;;;;;5098558;28;20050;-71
2024/01/06 04:36:51;;;;;;;33.65;25.85;;;;;;;;;;5097969;28;20028;-70
2024/01/06 04:39:16;;;;;;;46.05;33.35;;;;;;;;;;5098451;28;20023;-69
2024/01/06 04:41:41;;;;;;;64.68;43.38;;;;;;;;;;5082877;28;20035;-69
2024/01/06 04:44:07;;;;;;;33.75;24.30;;;;;;;;;;5093688;28;20027;-72
2024/01/06 04:46:32;;;;;;;14.75;9.55;;;;;;;;;;5095287;28;20034;-73
2024/01/06 04:48:58;;;;;;;13.82;9.20;;;;;;;;;;5094148;28;20494;-73
2024/01/06 04:51:23;;;;;;;13.60;10.50;;;;;;;;;;5095309;28;20062;-71
2024/01/06 04:53:48;;;;;;;11.20;8.43;;;;;;;;;;5095963;28;20035;-71
2024/01/06 04:56:14;;;;;;;9.80;7.93;;;;;;;;;;5096026;28;20024;-70
2024/01/06 04:58:39;;;;;;;9.50;7.57;;;;;;;;;;5098797;28;20034;-70
2024/01/06 05:01:04;;;;;;;17.40;13.93;;;;;;;;;;5078083;28;20016;-70
2024/01/06 05:03:30;;;;;;;31.83;23.77;;;;;;;;;;5081074;28;20028;-69
2024/01/06 05:05:55;;;;;;;46.20;32.95;;;;;;;;;;5081465;28;20062;-70
2024/01/06 05:08:22;;;;;;;39.58;31.05;;;;;;;;;;5098371;28;20051;-74
2024/01/06 05:10:48;;;;;;;30.65;24.48;;;;;;;;;;5101212;28;20096;-70
2024/01/06 05:13:13;;;;;;;29.02;22.67;;;;;;;;;;5098598;28;20429;-73
2024/01/06 05:15:39;;;;;;;29.02;21.85;;;;;;;;;;5082512;28;20031;-73
2024/01/06 05:18:04;;;;;;;24.08;20.30;;;;;;;;;;5090872;28;20084;-72
2024/01/06 05:20:30;;;;;;;31.33;23.33;;;;;;;;;;5093044;28;20028;-71
2024/01/06 05:22:55;;;;;;;30.15;22.75;;;;;;;;;;5096335;28;20225;-72
2024/01/06 05:25:20;;;;;;;23.55;17.95;;;;;;;;;;5096887;28;20032;-72
2024/01/06 05:27:46;;;;;;;21.27;16.83;;;;;;;;;;5085424;28;20027;-73
2024/01/06 05:30:11;;;;;;;20.05;16.20;;;;;;;;;;5099763;28;20085;-72
2024/01/06 05:32:37;;;;;;;19.40;13.65;;;;;;;;;;5102870;28;20047;-73
2024/01/06 05:35:03;;;;;;;16.73;12.13;;;;;;;;;;5093260;28;20036;-70
2024/01/06 05:37:28;;;;;;;35.35;27.98;;;;;;;;;;5085309;28;20515;-70
2024/01/06 05:39:54;;;;;;;39.22;32.22;;;;;;;;;;5099484;28;20444;-71
2024/01/06 05:42:20;;;;;;;45.58;35.78;;;;;;;;;;5099746;28;20330;-71
2024/01/06 05:44:45;;;;;;;38.85;32.50;;;;;;;;;;5101106;28;20096;-71
2024/01/06 05:47:10;;;;;;;36.15;28.48;;;;;;;;;;5092369;28;20016;-70
2024/01/06 05:49:36;;;;;;;45.10;37.97;;;;;;;;;;5087826;28;20027;-74
2024/01/06 05:52:01;;;;;;;38.78;32.88;;;;;;;;;;5098464;28;20577;-71
2024/01/06 05:54:26;;;;;;;25.88;21.50;;;;;;;;;;5082258;28;20020;-70
2024/01/06 05:56:52;;;;;;;21.50;17.20;;;;;;;;;;5098586;28;20027;-70
2024/01/06 05:59:17;;;;;;;18.73;16.63;;;;;;;;;;5097824;28;20088;-70
2024/01/06 06:01:43;;;;;;;24.85;20.83;;;;;;;;;;5084234;28;20027;-70
2024/01/06 06:04:09;;;;;;;31.65;26.92;;;;;;;;;;5090404;28;20095;-72
2024/01/06 06:06:34;;;;;;;43.50;34.70;;;;;;;;;;5076327;28;20103;-72
2024/01/06 06:08:59;;;;;;;41.00;35.17;;;;;;;;;;5077980;28;20478;-71
2024/01/06 06:11:25;;;;;;;39.92;29.00;;;;;;;;;;5079370;28;20304;-73
2024/01/06 06:13:50;;;;;;;27.02;22.02;;;;;;;;;;5081309;28;20392;-71
2024/01/06 06:16:15;;;;;;;56.47;44.85;;;;;;;;;;5079640;28;20360;-71
2024/01/06 06:18:41;;;;;;;66.78;52.90;;;;;;;;;;5081281;28;20039;-71
2024/01/06 06:21:07;;;;;;;32.58;27.60;;;;;;;;;;5078183;28;20039;-72
2024/01/06 06:23:33;;;;;;;27.40;23.38;;;;;;;;;;5076802;28;20065;-72
2024/01/06 06:25:59;;;;;;;22.00;16.55;;;;;;;;;;5077919;28;20023;-70
2024/01/06 06:28:25;;;;;;;23.10;20.65;;;;;;;;;;5079000;28;20016;-71
2024/01/06 06:30:50;;;;;;;21.27;16.63;;;;;;;;;;5088315;28;20039;-73
2024/01/06 06:33:15;;;;;;;22.75;19.27;;;;;;;;;;5082486;28;20037;-70
2024/01/06 06:35:41;;;;;;;39.58;33.65;;;;;;;;;;5082798;28;20023;-71
2024/01/06 06:38:06;;;;;;;24.17;19.38;;;;;;;;;;5076989;28;20443;-72
2024/01/06 06:40:31;;;;;;;29.95;23.02;;;;;;;;;;5086771;28;20020;-71
2024/01/06 06:42:57;;;;;;;22.50;19.17;;;;;;;;;;5078961;28;20019;-72
2024/01/06 06:45:22;;;;;;;28.42;22.95;;;;;;;;;;5077040;28;20035;-71
2024/01/06 06:47:50;;;;;;;35.40;29.45;;;;;;;;;;5078355;28;20027;-76
2024/01/06 06:50:16;;;;;;;43.78;34.38;;;;;;;;;;5078131;28;20028;-71
2024/01/06 06:52:42;;;;;;;34.40;28.60;;;;;;;;;;5081545;28;20024;-71
2024/01/06 06:55:07;;;;;;;39.70;29.73;;;;;;;;;;5082198;28;20049;-71
2024/01/06 06:57:33;;;;;;;39.33;33.30;;;;;;;;;;5062454;28;20102;-74
2024/01/06 07:00:00;;;;;;;64.20;54.80;;;;;;;;;;5077960;28;20027;-71
2024/01/06 07:02:25;;;;;;;48.25;42.05;;;;;;;;;;5066331;28;20407;-71
2024/01/06 07:04:50;;;;;;;35.53;31.73;;;;;;;;;;5068062;28;20026;-71
2024/01/06 07:07:16;;;;;;;34.53;28.98;;;;;;;;;;5081372;28;20023;-71
2024/01/06 07:09:41;;;;;;;29.00;25.15;;;;;;;;;;5085186;28;20096;-71
2024/01/06 07:12:07;;;;;;;27.17;22.55;;;;;;;;;;5081794;28;20040;-71
2024/01/06 07:14:33;;;;;;;26.50;21.42;;;;;;;;;;5080181;28;20049;-75
2024/01/06 07:16:58;;;;;;;27.02;23.45;;;;;;;;;;5079922;28;20024;-76
2024/01/06 07:19:24;;;;;;;28.55;22.27;;;;;;;;;;5080749;28;20098;-74
2024/01/06 07:21:49;;;;;;;28.42;21.38;;;;;;;;;;5083335;28;20584;-72
2024/01/06 07:24:15;;;;;;;31.25;24.85;;;;;;;;;;5082488;28;20884;-71
2024/01/06 07:26:40;;;;;;;57.90;43.65;;;;;;;;;;5083587;28;20517;-70
2024/01/06 07:29:07;;;;;;;96.45;65.10;;;;;;;;;;5079706;28;20027;-72
2024/01/06 07:31:33;;;;;;;156.77;125.93;;;;;;;;;;5080436;28;20107;-72
2024/01/06 07:33:58;;;;;;;172.13;137.80;;;;;;;;;;5078591;28;20119;-72
2024/01/06 07:36:24;;;;;;;347.48;271.50;;;;;;;;;;5081537;28;20103;-73
2024/01/06 07:38:49;;;;;;;156.13;117.30;;;;;;;;;;5081929;28;20023;-68
2024/01/06 07:41:14;;;;;;;114.13;91.32;;;;;;;;;;5082621;28;20145;-68
2024/01/06 07:43:40;;;;;;;115.07;93.93;;;;;;;;;;5079102;28;20032;-69
2024/01/06 07:46:06;;;;;;;73.57;64.10;;;;;;;;;;5075634;28;20049;-68
2024/01/06 07:48:32;;;;;;;81.03;71.68;;;;;;;;;;5078586;28;20020;-71
2024/01/06 07:50:57;;;;;;;114.15;101.72;;;;;;;;;;5077148;28;20024;-67
2024/01/06 07:53:23;;;;;;;108.88;96.78;;;;;;;;;;5092878;28;20366;-71
2024/01/06 07:55:49;;;;;;;134.68;112.40;;;;;;;;;;5087205;28;20044;-67
2024/01/06 07:58:14;;;;;;;155.32;129.85;;;;;;;;;;5079216;28;20446;-68
2024/01/06 08:00:40;;;;;;;121.00;99.20;;;;;;;;;;5083583;28;20351;-68
2024/01/06 08:03:06;;;;;;;171.95;141.38;;;;;;;;;;5086770;28;20157;-72
2024/01/06 08:05:31;;;;;;;126.00;108.95;;;;;;;;;;5078325;28;20404;-73
2024/01/06 08:07:57;;;;;;;121.30;98.40;;;;;;;;;;5074626;28;20043;-75
2024/01/06 08:10:22;;;;;;;102.38;81.40;;;;;;;;;;5079103;28;20422;-73
2024/01/06 08:12:48;;;;;;;86.22;69.70;;;;;;;;;;5077364;28;20818;-72
2024/01/06 08:15:14;;;;;;;68.47;55.90;;;;;;;;;;5079893;28;20414;-73
2024/01/06 08:17:40;;;;;;;66.43;58.85;;;;;;;;;;5096151;28;20050;-72
2024/01/06 08:20:06;;;;;;;91.32;81.50;;;;;;;;;;5096775;28;20151;-72
2024/01/06 08:22:32;;;;;;;115.57;102.53;;;;;;;;;;5079372;28;20038;-76
2024/01/06 08:24:57;;;;;;;78.88;70.15;;;;;;;;;;5084559;28;20350;-73
2024/01/06 08:27:23;;;;;;;68.13;55.63;;;;;;;;;;5096259;28;20020;-74
2024/01/06 08:29:49;;;;;;;65.15;53.33;;;;;;;;;;5097009;28;20039;-74
2024/01/06 08:32:15;;;;;;;147.48;130.80;;;;;;;;;;5093460;28;20043;-72
2024/01/06 08:34:40;;;;;;;94.15;83.88;;;;;;;;;;5078890;28;20104;-72
2024/01/06 08:37:05;;;;;;;117.68;104.78;;;;;;;;;;5090700;28;20011;-74
2024/01/06 08:39:31;;;;;;;142.25;124.22;;;;;;;;;;5078083;28;20081;-73
2024/01/06 08:41:56;;;;;;;162.73;132.35;;;;;;;;;;5079773;28;20127;-70
2024/01/06 08:44:22;;;;;;;107.65;87.90;;;;;;;;;;5075683;28;20030;-75
2024/01/06 08:46:47;;;;;;;209.07;178.93;;;;;;;;;;5078684;28;20443;-74
2024/01/06 08:49:12;;;;;;;178.90;154.25;;;;;;;;;;5076663;28;20063;-72
2024/01/06 08:51:38;;;;;;;114.45;101.90;;;;;;;;;;5077759;28;20072;-70
2024/01/06 08:54:06;;;;;;;107.50;95.20;;;;;;;;;;5073418;28;20039;-71
2024/01/06 08:56:32;;;;;;;287.65;255.40;;;;;;;;;;5094813;28;20052;-72
2024/01/06 08:58:57;;;;;;;219.70;193.13;;;;;;;;;;5098003;28;20295;-71
2024/01/06 09:01:23;;;;;;;339.98;302.70;;;;;;;;;;5095726;28;20028;-73
2024/01/06 09:03:49;;;;;;;163.98;146.30;;;;;;;;;;5080872;28;20390;-68
2024/01/06 09:06:15;;;;;;;74.07;63.58;;;;;;;;;;5080465;28;20032;-73
2024/01/06 09:08:40;;;;;;;56.88;47.10;;;;;;;;;;5074016;28;20182;-71
2024/01/06 09:11:06;;;;;;;57.90;50.58;;;;;;;;;;5076023;28;20036;-70
2024/01/06 09:13:32;;;;;;;53.65;46.17;;;;;;;;;;5076123;28;20085;-73
2024/01/06 09:15:58;;;;;;;121.53;102.05;;;;;;;;;;5072632;28;20450;-69
2024/01/06 09:18:23;;;;;;;72.18;55.42;;;;;;;;;;5087527;28;20511;-69
2024/01/06 09:20:49;;;;;;;102.85;80.90;;;;;;;;;;5096751;28;20105;-71
2024/01/06 09:23:15;;;;;;;141.75;120.25;;;;;;;;;;5096666;28;20031;-69
2024/01/06 09:25:41;;;;;;;79.47;66.47;;;;;;;;;;5092964;28;20036;-71
2024/01/06 09:28:06;;;;;;;55.33;47.42;;;;;;;;;;5076029;28;20024;-70
2024/01/06 09:30:32;;;;;;;49.08;38.67;;;;;;;;;;5081363;28;20480;-69
2024/01/06 09:32:57;;;;;;;49.28;42.65;;;;;;;;;;5097498;28;21303;-70
2024/01/06 09:35:23;;;;;;;57.00;46.97;;;;;;;;;;5087138;28;23583;-70
2024/01/06 09:37:48;;;;;;;94.55;73.55;;;;;;;;;;5091060;28;20431;-73
2024/01/06 09:40:17;;;;;;;143.70;102.45;;;;;;;;;;5097052;28;20056;-71
2024/01/06 09:42:43;;;;;;;185.85;123.60;;;;;;;;;;5097714;28;20023;-71
2024/01/06 09:45:08;;;;;;;80.80;69.13;;;;;;;;;;5097229;28;20035;-69
2024/01/06 09:47:35;;;;;;;67.95;52.97;;;;;;;;;;5097608;28;20055;-69
2024/01/06 09:50:01;;;;;;;47.88;39.58;;;;;;;;;;5093241;28;20028;-70
2024/01/06 09:52:26;;;;;;;69.28;59.83;;;;;;;;;;5094835;28;20027;-70
2024/01/06 09:54:53;;;;;;;77.35;65.35;;;;;;;;;;5096249;28;20023;-71
2024/01/06 09:57:19;;;;;;;63.40;54.95;;;;;;;;;;5100021;28;20019;-69
2024/01/06 09:59:46;;;;;;;46.38;37.67;;;;;;;;;;5102157;28;20439;-72
2024/01/06 10:02:14;;;;;;;52.90;42.70;;;;;;;;;;5098186;28;20039;-71
2024/01/06 10:04:39;;;;;;;50.25;41.80;;;;;;;;;;5085839;28;20015;-70
2024/01/06 10:07:05;;;;;;;48.58;39.72;;;;;;;;;;5096592;28;20038;-70
2024/01/06 10:09:30;;;;;;;82.90;72.32;;;;;;;;;;5065424;28;20078;-69
2024/01/06 10:11:56;;;;;;;44.88;38.30;;;;;;;;;;5098087;28;20031;-72
2024/01/06 10:14:23;;;;;;;61.92;50.20;;;;;;;;;;5101312;28;20090;-70
2024/01/06 10:16:49;;;;;;;61.97;49.67;;;;;;;;;;5090477;28;20026;-67
2024/01/06 10:19:15;;;;;;;78.65;61.45;;;;;;;;;;5067823;28;20031;-70
2024/01/06 10:21:40;;;;;;;55.20;42.95;;;;;;;;;;5078548;28;20092;-72
2024/01/06 10:24:07;;;;;;;75.13;60.03;;;;;;;;;;5086732;28;20088;-71
2024/01/06 10:26:32;;;;;;;62.45;52.53;;;;;;;;;;5096974;28;20027;-69
2024/01/06 10:28:58;;;;;;;73.40;58.80;;;;;;;;;;5072998;28;20826;-70
2024/01/06 10:31:24;;;;;;;76.60;61.30;;;;;;;;;;5093941;28;20027;-71
2024/01/06 10:33:50;;;;;;;65.72;50.67;;;;;;;;;;5097514;28;20035;-71
2024/01/06 10:36:16;;;;;;;46.95;39.65;;;;;;;;;;5091866;28;20032;-70
2024/01/06 10:38:41;;;;;;;62.60;51.55;;;;;;;;;;5090740;28;20039;-69
2024/01/06 10:41:07;;;;;;;62.83;50.92;;;;;;;;;;5080137;28;20023;-72
2024/01/06 10:43:38;;;;;;;83.78;65.22;;;;;;;;;;5096472;28;20483;-68
2024/01/06 10:46:04;;;;;;;55.55;45.50;;;;;;;;;;5085961;28;20073;-67
2024/01/06 10:48:35;;;;;;;54.38;47.00;;;;;;;;;;5079230;28;20103;-69
2024/01/06 10:51:07;;;;;;;72.82;59.63;;;;;;;;;;5062250;28;20034;-69
2024/01/06 10:53:33;;;;;;;106.97;88.85;;;;;;;;;;5094135;28;20031;-69
2024/01/06 10:55:59;;;;;;;83.90;70.07;;;;;;;;;;5096426;28;20092;-68
2024/01/06 10:58:24;;;;;;;61.45;48.80;;;;;;;;;;5090724;28;20023;-67
2024/01/06 11:00:50;;;;;;;59.45;46.45;;;;;;;;;;5091112;28;20020;-69
2024/01/06 11:03:17;;;;;;;59.53;46.13;;;;;;;;;;5095866;28;20020;-69
2024/01/06 11:05:45;;;;;;;47.47;39.22;;;;;;;;;;5097967;28;20103;-68
2024/01/06 11:08:11;;;;;;;47.88;39.72;;;;;;;;;;5075483;28;20062;-69
2024/01/06 11:10:36;;;;;;;46.28;40.67;;;;;;;;;;5099932;28;20032;-68
2024/01/06 11:13:09;;;;;;;44.85;36.30;;;;;;;;;;5082450;28;20039;-70
2024/01/06 11:15:46;;;;;;;70.53;60.50;;;;;;;;;;5082482;28;20024;-70
2024/01/06 11:18:31;;;;;;;135.10;90.55;;;;;;;;;;5083701;28;20035;-72
2024/01/06 11:21:18;;;;;;;72.00;55.38;;;;;;;;;;5080747;28;20112;-70
2024/01/06 11:23:44;;;;;;;71.25;53.33;;;;;;;;;;5081901;28;20307;-70
2024/01/06 11:26:09;;;;;;;58.28;46.55;;;;;;;;;;5081648;28;20107;-71
2024/01/06 11:28:47;;;;;;;73.18;53.95;;;;;;;;;;5079124;28;20080;-69
2024/01/06 11:31:13;;;;;;;100.32;86.38;;;;;;;;;;5080516;28;20024;-69
2024/01/06 11:33:47;;;;;;;75.32;61.28;;;;;;;;;;5081357;28;20055;-69
2024/01/06 11:36:14;;;;;;;68.57;52.33;;;;;;;;;;5088128;28;20101;-69
2024/01/06 11:38:39;;;;;;;77.25;55.22;;;;;;;;;;5070835;28;20552;-69
2024/01/06 11:41:09;;;;;;;84.25;64.38;;;;;;;;;;5091027;28;20020;-70
2024/01/06 11:43:37;;;;;;;68.55;50.42;;;;;;;;;;5096274;28;20031;-69
2024/01/06 11:46:06;;;;;;;48.15;41.20;;;;;;;;;;5078282;28;20659;-71
2024/01/06 11:48:32;;;;;;;54.85;47.70;;;;;;;;;;5081936;28;20069;-70
2024/01/06 11:50:58;;;;;;;139.65;113.78;;;;;;;;;;5066647;28;20063;-68
2024/01/06 11:53:25;;;;;;;90.88;75.22;;;;;;;;;;5079654;28;20466;-69
2024/01/06 11:55:51;;;;;;;64.10;48.40;;;;;;;;;;5074240;28;20022;-68
2024/01/06 11:58:17;;;;;;;55.15;46.13;;;;;;;;;;5075559;28;20020;-69
2024/01/06 12:00:42;;;;;;;43.42;35.45;;;;;;;;;;5066637;28;23391;-71
2024/01/06 12:03:08;;;;;;;49.33;39.47;;;;;;;;;;5084325;28;20023;-70
2024/01/06 12:05:33;;;;;;;103.43;74.10;;;;;;;;;;5084252;28;20358;-69
2024/01/06 12:08:04;;;;;;;54.83;45.42;;;;;;;;;;5090811;28;20044;-69
2024/01/06 12:10:30;;;;;;;39.50;31.08;;;;;;;;;;5095561;28;20072;-68
2024/01/06 12:12:58;;;;;;;38.92;34.38;;;;;;;;;;5092341;28;20457;-68
2024/01/06 12:15:24;;;;;;;44.50;36.97;;;;;;;;;;5078062;28;20024;-72
2024/01/06 12:17:49;;;;;;;44.85;38.30;;;;;;;;;;5080374;28;20039;-68
2024/01/06 12:20:16;;;;;;;65.10;48.17;;;;;;;;;;5078900;28;20028;-69
2024/01/06 12:22:42;;;;;;;62.55;49.08;;;;;;;;;;5079342;28;20054;-63
2024/01/06 12:25:08;;;;;;;56.08;43.10;;;;;;;;;;5081589;28;20379;-66
2024/01/06 12:27:34;;;;;;;101.10;72.65;;;;;;;;;;5082182;28;20103;-68
2024/01/06 12:29:59;;;;;;;92.82;69.78;;;;;;;;;;5095975;28;20111;-67
2024/01/06 12:32:25;;;;;;;81.07;58.10;;;;;;;;;;5097730;28;20231;-70
2024/01/06 12:34:50;;;;;;;53.33;43.03;;;;;;;;;;5082518;28;20107;-66
2024/01/06 12:37:16;;;;;;;58.05;42.40;;;;;;;;;;5081403;28;20034;-66
2024/01/06 12:39:45;;;;;;;152.00;107.72;;;;;;;;;;5077206;28;20351;-64
2024/01/06 12:42:10;;;;;;;69.55;51.50;;;;;;;;;;5069625;28;20371;-66
2024/01/06 12:44:38;;;;;;;46.85;37.28;;;;;;;;;;5093370;28;20027;-66
2024/01/06 12:47:04;;;;;;;60.42;47.08;;;;;;;;;;5081879;28;20422;-65
2024/01/06 12:49:29;;;;;;;55.22;43.97;;;;;;;;;;5081543;28;20085;-66
2024/01/06 12:51:54;;;;;;;129.63;95.72;;;;;;;;;;5079189;28;20117;-69
2024/01/06 12:54:20;;;;;;;126.47;95.97;;;;;;;;;;5074586;28;20040;-68
2024/01/06 12:56:45;;;;;;;87.57;69.57;;;;;;;;;;5077742;28;20039;-64
2024/01/06 12:59:11;;;;;;;58.10;46.38;;;;;;;;;;5077512;28;20156;-67
2024/01/06 13:01:36;;;;;;;58.67;48.67;;;;;;;;;;5077908;28;20594;-64
2024/01/06 13:04:02;;;;;;;112.97;86.75;;;;;;;;;;5059529;28;20039;-67
2024/01/06 13:06:27;;;;;;;173.15;129.82;;;;;;;;;;5078418;28;20982;-69
2024/01/06 13:08:53;;;;;;;93.20;70.93;;;;;;;;;;5082499;28;20048;-66
2024/01/06 13:11:18;;;;;;;53.45;45.33;;;;;;;;;;5072736;28;20032;-68
2024/01/06 13:13:43;;;;;;;70.38;60.67;;;;;;;;;;5083335;28;20745;-69
2024/01/06 13:16:09;;;;;;;93.85;82.95;;;;;;;;;;5090466;28;20024;-69
2024/01/06 13:18:35;;;;;;;120.40;107.43;;;;;;;;;;5088653;28;20037;-69
2024/01/06 13:21:01;;;;;;;66.68;59.38;;;;;;;;;;5088079;28;20035;-68
2024/01/06 13:23:27;;;;;;;56.03;48.92;;;;;;;;;;5089907;28;20142;-65
2024/01/06 13:25:52;;;;;;;68.18;60.85;;;;;;;;;;5074016;28;20183;-65
2024/01/06 13:28:17;;;;;;;88.82;73.22;;;;;;;;;;5091779;28;20706;-69
2024/01/06 13:30:43;;;;;;;76.72;66.50;;;;;;;;;;5095851;28;20019;-69
2024/01/06 13:33:11;;;;;;;91.45;75.68;;;;;;;;;;5097958;28;20035;-65
2024/01/06 13:35:37;;;;;;;80.00;64.95;;;;;;;;;;5071821;28;20031;-65
2024/01/06 13:38:04;;;;;;;92.82;77.57;;;;;;;;;;5088829;28;20085;-65
2024/01/06 13:40:29;;;;;;;65.80;58.67;;;;;;;;;;5082797;28;20031;-66
2024/01/06 13:42:55;;;;;;;54.70;48.80;;;;;;;;;;5095053;28;20369;-69
2024/01/06 13:45:20;;;;;;;50.33;44.50;;;;;;;;;;5086074;28;20072;-65
2024/01/06 13:47:46;;;;;;;63.58;55.28;;;;;;;;;;5079343;28;20047;-66
2024/01/06 13:50:12;;;;;;;70.43;60.85;;;;;;;;;;5081451;27;20031;-68
2024/01/06 13:52:38;;;;;;;83.18;74.22;;;;;;;;;;5083650;28;20031;-67
2024/01/06 13:55:04;;;;;;;76.40;61.70;;;;;;;;;;5090533;28;20089;-70
2024/01/06 13:57:29;;;;;;;67.97;58.67;;;;;;;;;;5099462;28;20023;-66
2024/01/06 13:59:55;;;;;;;58.85;50.15;;;;;;;;;;5086807;28;20724;-72
2024/01/06 14:02:20;;;;;;;87.75;78.32;;;;;;;;;;5077704;28;20020;-68
2024/01/06 14:04:46;;;;;;;89.97;75.78;;;;;;;;;;5084511;28;20111;-66